Rostock Warnemuende, Germany

10:13 AM CET on February 13, 2016 (GMT +0100)
Schwerin-Parchim | | Change Station
CLOSE
Current Station
Airport
Location: Schwerin Parchim,
Elevation: 164 ft
Nearby Weather Stations

Elev 164 ft 53.43 °N, 11.78 °E | Updated 23 minutes ago

Clear
Clear
34 °F
Feels Like 27 °F
N
8
Wind Variable Wind from East

Today
High -- | Low -- °F
--% Chance of Precip.
Yesterday
High -- | Low -- °F
Precip. -- in
Pressure 29.44 in
Visibility 3.7 miles
Clouds
Windchill 27 °F
Dew Point 32 °F
Humidity 93%
Rainfall 0.00 in
Snow Depth Not available.
7:37 AM 5:15 PM
Waxing Crescent, 29% visible
METAR EDOP 130850Z 08007KT 6000 NSC 01/00 Q0997
Pressure 29.44 in
Visibility 3.7 miles
Clouds
Windchill 27 °F
Dew Point 32 °F
Humidity 93%
Rainfall 0.00 in
Snow Depth Not available.
7:37 AM 5:15 PM
Waxing Crescent, 29% visible
METAR EDOP 130850Z 08007KT 6000 NSC 01/00 Q0997

10-Day Weather Forecast

Almanac

Astronomy

Feb. 13, 2016 Rise Set
Actual Time
Civil Twilight
Nautical Twilight
Astronomical Twilight
Moon
Length of Visible Light
Length of Day
Tomorrow will be .
, % of the Moon is Illuminated

Today's Extremes

Country Highs Country Lows

Community

WunderPhotos

Upload Photos

1,892,536 photos uploaded!

WunderBlog® & News

Nearby

Air Quality

  Air Quality AQ Index Pollutant
Not available.

Snow Depth

Station Depth Elevation

Earthquake Activity

City Distance Mag. Time & Date
Minimum magnitude displayed is 2.5.

Coastal Water Temperatures

Place Temperature

Stations

Nearby Weather Stations

Station Location Temp. Windchill Dew Point Humidity Wind Precip. Elev Updated Type